This is the latest recevied weather packets stored in our database for station/object KB3KAV. If no packets are shown the sender has not sent any weather packets the latest 10 day(s).
| Time | Temp. | Humidity | Pressure | Rain* | Wind** | Luminosity | Snow |
|---|---|---|---|---|---|---|---|
| 1777555010 | 10° C | 94% | 1036.8 hPa | 0 mm | - | 203 W/m² | - |
| 1777554410 | 10° C | 95% | 1037.1 hPa | 0 mm | - | 409 W/m² | - |
| 1777553809 | 8.89° C | 95% | 1037 hPa | 0 mm | - | 94 W/m² | - |
| 1777553206 | 8.89° C | 95% | 1036.9 hPa | 0 mm | - | 157 W/m² | - |
| 1777552603 | 8.89° C | 95% | 1037 hPa | 0 mm | - | 87 W/m² | - |
| 1777552003 | 8.89° C | 95% | 1037 hPa | 0 mm | - | 69 W/m² | - |
| 1777551398 | 8.89° C | 95% | 1037.1 hPa | 0 mm | - | 71 W/m² | - |
| 1777550797 | 9.44° C | 95% | 1037 hPa | 0 mm | - | 79 W/m² | - |
| 1777550195 | 8.89° C | 95% | 1037.2 hPa | 1.27 mm | - | 62 W/m² | - |
| 1777549593 | 8.89° C | 95% | 1037.1 hPa | 0 mm | - | 50 W/m² | - |
| 1777548993 | 8.89° C | 95% | 1037 hPa | 0 mm | - | 66 W/m² | - |
| 1777548392 | 8.33° C | 95% | 1037.4 hPa | 0 mm | - | 34 W/m² | - |
| 1777547791 | 8.89° C | 95% | 1037 hPa | 0 mm | - | 24 W/m² | - |
| 1777547191 | 8.89° C | 95% | 1036.8 hPa | 0 mm | - | 18 W/m² | - |
| 1777546590 | 8.89° C | 95% | 1036.7 hPa | 0 mm | - | 5 W/m² | - |
| 1777545990 | 8.89° C | 95% | 1036.8 hPa | 0 mm | - | 2 W/m² | - |
| 1777545389 | 8.89° C | 95% | 1036.7 hPa | 1.78 mm | - | 0 W/m² | - |
| 1777544789 | 8.89° C | 95% | 1036.6 hPa | 1.27 mm | - | 0 W/m² | - |
| 1777544187 | 8.89° C | 95% | 1036.7 hPa | 0 mm | - | 0 W/m² | - |
| 1777543587 | 8.89° C | 95% | 1036.3 hPa | 0 mm | - | 0 W/m² | - |
| 1777542984 | 8.89° C | 95% | 1036.5 hPa | 1.78 mm | - | 0 W/m² | - |
| 1777542383 | 8.89° C | 95% | 1036.2 hPa | 0 mm | - | 0 W/m² | - |
| 1777541783 | 8.89° C | 95% | 1036.1 hPa | 0 mm | - | 0 W/m² | - |
| 1777541182 | 8.89° C | 95% | 1036 hPa | 0 mm | - | 0 W/m² | - |
| 1777540576 | 8.89° C | 95% | 1035.8 hPa | 0 mm | - | 0 W/m² | - |
* Rain latest hour (hover to see other rain measurements)
** Current wind speed in m/s (hover to see current wind gust speed)